createdAt,value
2023-01-28T00:02:08.594Z,101207.09
2023-01-28T00:04:36.040Z,101207.91
2023-01-28T00:07:03.477Z,101208.72
2023-01-28T00:09:30.965Z,101207.38
2023-01-28T00:11:58.997Z,101203.97
2023-01-28T00:17:16.053Z,101202.31
2023-01-28T00:19:44.765Z,101205.75
2023-01-28T00:22:12.437Z,101202.38
2023-01-28T00:24:39.837Z,101204.53
2023-01-28T00:27:07.305Z,101199.53
2023-01-28T00:29:35.821Z,101210.03
2023-01-28T00:32:03.415Z,101209.41
2023-01-28T00:34:32.241Z,101213.06
2023-01-28T00:36:59.692Z,101205.16
2023-01-28T00:39:27.895Z,101208.69
2023-01-28T00:41:55.553Z,101207.97
2023-01-28T00:44:25.463Z,101211.63
2023-01-28T00:46:52.926Z,101219.19
2023-01-28T00:49:22.870Z,101223.81
2023-01-28T00:51:51.607Z,101219.19
2023-01-28T00:57:21.598Z,101216.28
2023-01-28T00:59:49.069Z,101219.00
2023-01-28T01:02:17.479Z,101216.38
2023-01-28T01:04:54.704Z,101213.50
2023-01-28T01:07:32.091Z,101212.63
2023-01-28T01:10:00.689Z,101209.97
2023-01-28T01:12:28.461Z,101201.38
2023-01-28T01:14:57.058Z,101203.47
2023-01-28T01:17:24.507Z,101205.28
2023-01-28T01:19:51.942Z,101206.00
2023-01-28T01:22:19.341Z,101199.22
2023-01-28T01:24:49.731Z,101200.81
2023-01-28T01:27:17.179Z,101200.81
2023-01-28T01:29:44.657Z,101186.66
2023-01-28T01:32:12.218Z,101213.44
2023-01-28T01:34:39.634Z,101208.47
2023-01-28T01:37:08.460Z,101217.59
2023-01-28T01:39:35.935Z,101208.69
2023-01-28T01:42:04.865Z,101213.75
2023-01-28T01:44:57.572Z,101210.69
2023-01-28T01:47:27.097Z,101212.44
2023-01-28T01:49:55.101Z,101202.59
2023-01-28T01:52:26.896Z,101214.50
2023-01-28T01:54:58.800Z,101197.81
2023-01-28T01:57:30.638Z,101204.84
2023-01-28T02:00:05.887Z,101206.28
2023-01-28T02:02:42.985Z,101212.16
2023-01-28T02:05:11.864Z,101205.13
2023-01-28T02:07:40.348Z,101210.78
2023-01-28T02:10:09.776Z,101218.16
2023-01-28T02:12:41.301Z,101214.78
2023-01-28T02:15:11.175Z,101224.06
2023-01-28T02:17:39.151Z,101228.66
2023-01-28T02:20:08.482Z,101225.75
2023-01-28T02:22:52.314Z,101221.84
2023-01-28T02:28:25.645Z,101237.50
2023-01-28T02:30:57.305Z,101238.78
2023-01-28T02:33:31.105Z,101242.44
2023-01-28T02:39:04.919Z,101234.56
2023-01-28T02:41:35.489Z,101229.31
2023-01-28T02:44:04.668Z,101235.09
2023-01-28T02:46:54.868Z,101227.91
2023-01-28T02:49:28.419Z,101229.50
2023-01-28T02:52:03.311Z,101224.84
2023-01-28T02:54:37.200Z,101224.81
2023-01-28T02:57:10.540Z,101223.34
2023-01-28T02:59:43.507Z,101220.69
2023-01-28T03:02:17.149Z,101215.66
2023-01-28T03:04:49.107Z,101211.56
2023-01-28T03:07:19.718Z,101216.72
2023-01-28T03:09:47.508Z,101206.16
2023-01-28T03:12:35.658Z,101210.84
2023-01-28T03:15:25.714Z,101218.31
2023-01-28T03:18:13.958Z,101215.47
2023-01-28T03:24:11.062Z,101222.50
2023-01-28T03:27:01.617Z,101206.72
2023-01-28T03:29:55.266Z,101211.06
2023-01-28T03:32:41.772Z,101213.38
2023-01-28T03:35:27.347Z,101208.69
2023-01-28T03:37:54.827Z,101214.13
2023-01-28T03:40:23.682Z,101203.63
2023-01-28T03:42:52.176Z,101210.28
2023-01-28T03:45:33.065Z,101209.66
2023-01-28T03:48:03.540Z,101203.00
2023-01-28T03:50:31.854Z,101207.56
2023-01-28T03:53:13.536Z,101207.22
2023-01-28T03:55:48.360Z,101209.28
2023-01-28T03:58:16.404Z,101217.91
2023-01-28T04:00:44.321Z,101216.19
2023-01-28T04:03:17.175Z,101219.66
2023-01-28T04:06:00.168Z,101205.63
2023-01-28T04:08:35.567Z,101208.69
2023-01-28T04:11:27.024Z,101215.09
2023-01-28T04:13:55.946Z,101218.56
2023-01-28T04:16:24.358Z,101218.44
2023-01-28T04:18:53.899Z,101224.47
2023-01-28T04:21:21.473Z,101224.88
2023-01-28T04:23:49.108Z,101228.16
2023-01-28T04:26:16.610Z,101211.50
2023-01-28T04:28:44.489Z,101233.84
2023-01-28T04:34:17.261Z,101233.91
2023-01-28T04:36:52.881Z,101240.78
2023-01-28T04:39:30.917Z,101243.56
2023-01-28T04:45:18.543Z,101249.78
2023-01-28T04:48:12.204Z,101247.50
2023-01-28T04:51:16.837Z,101254.94
2023-01-28T04:54:02.966Z,101252.91
2023-01-28T04:56:32.842Z,101252.56
2023-01-28T04:59:02.039Z,101251.00
2023-01-28T05:01:30.453Z,101248.72
2023-01-28T05:03:58.054Z,101252.94
2023-01-28T05:06:29.028Z,101256.81
2023-01-28T05:09:03.517Z,101248.16
2023-01-28T05:11:31.308Z,101242.91
2023-01-28T05:14:03.291Z,101241.53
2023-01-28T05:16:40.756Z,101236.72
2023-01-28T05:19:08.748Z,101240.13
2023-01-28T05:21:41.971Z,101226.91
2023-01-28T05:24:18.533Z,101241.06
2023-01-28T05:26:46.234Z,101236.03
2023-01-28T05:32:02.958Z,101239.53
2023-01-28T05:34:31.386Z,101244.59
2023-01-28T05:37:03.412Z,101239.34
2023-01-28T05:39:37.250Z,101245.41
2023-01-28T05:42:04.915Z,101241.03
2023-01-28T05:44:34.726Z,101247.50
2023-01-28T05:47:15.367Z,101249.41
2023-01-28T05:49:52.805Z,101254.81
2023-01-28T05:55:42.918Z,101257.63
2023-01-28T05:58:10.734Z,101268.69
2023-01-28T06:00:38.235Z,101255.44
2023-01-28T06:05:54.693Z,101267.50
2023-01-28T06:08:22.345Z,101257.69
2023-01-28T06:10:51.284Z,101256.66
2023-01-28T06:13:18.709Z,101253.78
2023-01-28T06:18:50.596Z,101250.25
2023-01-28T06:21:19.026Z,101258.94
2023-01-28T06:23:46.475Z,101252.88
2023-01-28T06:26:15.350Z,101260.84
2023-01-28T06:28:45.206Z,101254.63
2023-01-28T06:31:12.632Z,101257.31
2023-01-28T06:33:40.093Z,101258.53
2023-01-28T06:36:08.380Z,101258.81
2023-01-28T06:38:35.954Z,101264.47
2023-01-28T06:41:03.366Z,101261.38
2023-01-28T06:46:26.466Z,101255.22
2023-01-28T06:48:53.895Z,101262.50
2023-01-28T06:51:21.409Z,101256.38
2023-01-28T06:53:48.836Z,101255.16
2023-01-28T06:56:16.252Z,101256.88
2023-01-28T06:58:43.709Z,101261.81
2023-01-28T07:01:11.466Z,101258.66
2023-01-28T07:03:40.235Z,101260.84
2023-01-28T07:06:07.896Z,101252.44
2023-01-28T07:08:37.581Z,101250.47
2023-01-28T07:11:05.308Z,101251.34
2023-01-28T07:13:32.822Z,101250.66
2023-01-28T07:16:00.265Z,101256.28
2023-01-28T07:18:27.879Z,101263.25
2023-01-28T07:20:56.989Z,101264.56
2023-01-28T07:23:24.646Z,101264.31
2023-01-28T07:25:52.055Z,101266.91
2023-01-28T07:28:21.435Z,101276.88
2023-01-28T07:30:52.482Z,101269.53
2023-01-28T07:33:20.917Z,101259.63
2023-01-28T07:35:48.738Z,101258.91
2023-01-28T07:38:17.548Z,101258.75
2023-01-28T07:43:43.620Z,101275.66
2023-01-28T07:46:12.927Z,101277.91
2023-01-28T07:51:46.374Z,101281.97
2023-01-28T07:54:15.481Z,101283.00
2023-01-28T07:56:42.918Z,101276.22
2023-01-28T07:59:10.339Z,101281.69
2023-01-28T08:04:26.714Z,101279.34
2023-01-28T08:06:54.425Z,101279.41
2023-01-28T08:09:23.229Z,101289.84
2023-01-28T08:11:50.708Z,101292.84
2023-01-28T08:14:18.165Z,101299.78
2023-01-28T08:16:45.573Z,101299.50
2023-01-28T08:19:13.000Z,101302.78
2023-01-28T08:21:40.409Z,101302.31
2023-01-28T08:24:08.332Z,101305.41
2023-01-28T08:26:37.127Z,101308.88
2023-01-28T08:29:05.272Z,101311.22
2023-01-28T08:31:32.997Z,101298.75
2023-01-28T08:34:02.243Z,101302.41
2023-01-28T08:36:29.853Z,101316.66
2023-01-28T08:38:57.323Z,101322.00
2023-01-28T08:41:25.074Z,101320.78
2023-01-28T08:43:53.860Z,101327.63
2023-01-28T08:49:09.564Z,101336.72
2023-01-28T08:51:36.999Z,101348.44
2023-01-28T08:54:04.612Z,101347.63
2023-01-28T08:56:32.602Z,101346.41
2023-01-28T08:59:01.363Z,101345.88
2023-01-28T09:01:29.334Z,101357.88
2023-01-28T09:06:55.569Z,101368.75
2023-01-28T09:09:23.203Z,101370.06
2023-01-28T09:11:50.636Z,101381.03
2023-01-28T09:14:19.469Z,101379.63
2023-01-28T09:16:46.888Z,101388.66
2023-01-28T09:19:15.781Z,101389.25
2023-01-28T09:21:43.436Z,101388.56
2023-01-28T09:24:12.000Z,101379.47
2023-01-28T09:26:39.497Z,101390.84
2023-01-28T09:29:07.805Z,101397.81
2023-01-28T09:34:35.983Z,101406.53
2023-01-28T09:37:03.517Z,101392.66
2023-01-28T09:39:30.994Z,101402.34
2023-01-28T09:42:11.619Z,101394.94
2023-01-28T09:44:49.450Z,101394.31
2023-01-28T09:47:21.712Z,101395.06
2023-01-28T09:49:52.702Z,101410.63
2023-01-28T09:52:23.035Z,101411.31
2023-01-28T09:54:51.968Z,101407.66
2023-01-28T09:57:22.916Z,101412.97
2023-01-28T09:59:53.135Z,101424.56
2023-01-28T10:02:40.468Z,101417.25
2023-01-28T10:05:17.980Z,101406.34
2023-01-28T10:07:51.484Z,101410.66
2023-01-28T10:10:23.245Z,101411.38
2023-01-28T10:13:02.104Z,101396.47
2023-01-28T10:16:02.693Z,101389.31
2023-01-28T10:18:36.774Z,101385.31
2023-01-28T10:21:12.365Z,101383.81
2023-01-28T10:23:48.400Z,101373.16
2023-01-28T10:26:24.005Z,101380.28
2023-01-28T10:28:56.209Z,101389.16
2023-01-28T10:31:31.697Z,101380.28
2023-01-28T10:33:59.489Z,101381.53
2023-01-28T10:36:28.504Z,101384.28
2023-01-28T10:38:56.146Z,101383.16
2023-01-28T10:44:16.561Z,101385.81
2023-01-28T10:46:46.304Z,101392.81
2023-01-28T10:49:16.585Z,101395.91
2023-01-28T10:51:45.544Z,101401.41
2023-01-28T10:54:21.850Z,101400.78
2023-01-28T10:56:50.267Z,101409.03
2023-01-28T11:02:19.632Z,101408.06
2023-01-28T11:04:47.093Z,101401.59
2023-01-28T11:07:20.255Z,101412.38
2023-01-28T11:09:49.106Z,101418.31
2023-01-28T11:12:21.395Z,101417.97
2023-01-28T11:14:52.472Z,101406.22
2023-01-28T11:17:21.336Z,101417.44
2023-01-28T11:19:48.892Z,101418.31
2023-01-28T11:22:24.282Z,101413.72
2023-01-28T11:24:51.788Z,101413.59
2023-01-28T11:27:20.777Z,101406.91
2023-01-28T11:29:48.541Z,101410.94
2023-01-28T11:32:20.723Z,101403.09
2023-01-28T11:37:53.532Z,101400.53
2023-01-28T11:40:22.103Z,101404.28
2023-01-28T11:42:51.197Z,101392.97
2023-01-28T11:45:21.419Z,101394.59
2023-01-28T11:47:58.801Z,101390.38
2023-01-28T11:50:34.282Z,101384.44
2023-01-28T11:56:09.903Z,101362.66
2023-01-28T12:01:53.952Z,101378.44
2023-01-28T12:04:34.570Z,101357.97
2023-01-28T12:07:16.754Z,101372.44
2023-01-28T12:09:50.761Z,101364.31
2023-01-28T12:12:24.303Z,101357.84
2023-01-28T12:15:20.086Z,101349.03
2023-01-28T12:17:59.718Z,101352.41
2023-01-28T12:20:31.373Z,101340.03
2023-01-28T12:23:17.345Z,101344.81
2023-01-28T12:25:56.458Z,101329.53
2023-01-28T12:31:57.464Z,101304.84
2023-01-28T12:34:43.161Z,101291.06
2023-01-28T12:37:15.263Z,101274.25
2023-01-28T12:39:51.653Z,101263.19
2023-01-28T12:42:22.668Z,101255.31
2023-01-28T12:44:52.532Z,101250.66
2023-01-28T12:47:25.160Z,101241.63
2023-01-28T12:49:54.830Z,101227.53
2023-01-28T12:55:14.553Z,101215.22
2023-01-28T12:57:42.418Z,101227.53
2023-01-28T13:00:20.907Z,101236.44
2023-01-28T13:02:54.823Z,101245.34
2023-01-28T13:05:25.141Z,101256.06
2023-01-28T13:10:52.391Z,101235.59
2023-01-28T13:13:25.025Z,101237.91
2023-01-28T13:19:06.334Z,101237.22
2023-01-28T13:21:43.879Z,101239.31
2023-01-28T13:24:42.594Z,101263.59
2023-01-28T13:27:21.941Z,101259.31
2023-01-28T13:29:50.127Z,101253.47
2023-01-28T13:32:33.622Z,101274.06
2023-01-28T13:35:04.811Z,101277.66
2023-01-28T13:37:36.464Z,101280.53
2023-01-28T13:40:09.324Z,101279.06
2023-01-28T13:42:38.050Z,101285.63
2023-01-28T13:48:21.609Z,101290.97
2023-01-28T13:50:53.799Z,101311.59
2023-01-28T13:56:22.258Z,101301.69
2023-01-28T13:59:11.460Z,101309.84
2023-01-28T14:04:52.347Z,101280.53
2023-01-28T14:07:34.387Z,101284.81
2023-01-28T14:10:14.126Z,101267.16
2023-01-28T14:13:17.455Z,101259.53
2023-01-28T14:18:27.560Z,101239.53
2023-01-28T14:20:56.872Z,101228.84
2023-01-28T14:23:26.764Z,101220.88
2023-01-28T14:26:04.999Z,101208.34
2023-01-28T14:28:39.186Z,101202.47
2023-01-28T14:34:23.310Z,101221.47
2023-01-28T14:36:52.280Z,101226.69
2023-01-28T14:39:22.288Z,101214.78
2023-01-28T14:41:53.375Z,101216.50
2023-01-28T14:44:30.508Z,101220.34
2023-01-28T14:50:21.117Z,101258.47
2023-01-28T14:53:00.377Z,101284.25
2023-01-28T14:55:34.994Z,101288.19
2023-01-28T14:58:05.364Z,101282.94
2023-01-28T15:03:35.392Z,101300.88
2023-01-28T15:06:05.075Z,101303.25
2023-01-28T15:08:33.085Z,101294.84
2023-01-28T15:11:01.810Z,101272.22
2023-01-28T15:13:31.953Z,101274.56
2023-01-28T15:16:00.583Z,101280.03
2023-01-28T15:18:31.462Z,101283.38
2023-01-28T15:20:59.503Z,101288.38
2023-01-28T15:23:29.436Z,101289.44
2023-01-28T15:25:57.047Z,101275.44
2023-01-28T15:28:27.952Z,101283.38
2023-01-28T15:30:57.007Z,101285.41
2023-01-28T15:33:25.269Z,101289.19
2023-01-28T15:35:54.105Z,101296.25
2023-01-28T15:38:22.136Z,101305.81
2023-01-28T15:40:54.756Z,101310.81
2023-01-28T15:43:24.178Z,101310.47
2023-01-28T15:49:00.045Z,101308.22
2023-01-28T15:51:30.869Z,101312.22
2023-01-28T15:54:04.325Z,101311.97
2023-01-28T15:56:32.004Z,101311.31
2023-01-28T16:01:47.639Z,101319.75
2023-01-28T16:04:26.524Z,101335.22
2023-01-28T16:06:54.739Z,101342.63
2023-01-28T16:09:25.339Z,101348.81
2023-01-28T16:11:52.969Z,101343.72
2023-01-28T16:14:26.180Z,101334.31
2023-01-28T16:16:54.460Z,101339.53
2023-01-28T16:19:34.292Z,101348.47
2023-01-28T16:22:02.436Z,101355.94
2023-01-28T16:24:32.041Z,101356.47
2023-01-28T16:27:00.724Z,101358.47
2023-01-28T16:29:30.905Z,101369.09
2023-01-28T16:31:59.701Z,101383.88
2023-01-28T16:34:28.591Z,101375.97
2023-01-28T16:40:00.389Z,101356.44
2023-01-28T16:42:29.548Z,101354.38
2023-01-28T16:44:57.012Z,101346.28
2023-01-28T16:47:24.479Z,101339.34
2023-01-28T16:49:53.276Z,101326.13
2023-01-28T16:55:13.241Z,101311.56
2023-01-28T16:57:41.062Z,101323.69
2023-01-28T17:00:09.503Z,101320.09
2023-01-28T17:05:40.966Z,101308.69
2023-01-28T17:08:08.391Z,101312.69
2023-01-28T17:10:35.838Z,101318.97
2023-01-28T17:13:03.301Z,101314.06
2023-01-28T17:15:30.807Z,101328.38
2023-01-28T17:17:58.375Z,101332.97
2023-01-28T17:20:25.954Z,101327.56
2023-01-28T17:22:54.894Z,101341.50
2023-01-28T17:25:22.353Z,101342.28
2023-01-28T17:27:50.015Z,101348.88
2023-01-28T17:33:05.783Z,101359.28
2023-01-28T17:35:35.265Z,101372.09
2023-01-28T17:38:05.238Z,101367.56
2023-01-28T17:40:32.929Z,101356.72
2023-01-28T17:43:00.348Z,101359.47
2023-01-28T17:45:31.103Z,101356.81
2023-01-28T17:47:58.597Z,101345.13
2023-01-28T17:53:29.877Z,101359.97
2023-01-28T17:55:57.364Z,101347.28
2023-01-28T17:58:24.837Z,101356.94
2023-01-28T18:00:52.403Z,101355.84
2023-01-28T18:03:20.013Z,101359.56
2023-01-28T18:05:57.722Z,101366.16
2023-01-28T18:08:25.337Z,101372.75
2023-01-28T18:11:06.619Z,101370.25
2023-01-28T18:13:36.456Z,101359.84
2023-01-28T18:18:57.546Z,101376.38
2023-01-28T18:21:46.349Z,101381.41
2023-01-28T18:24:18.696Z,101379.78
2023-01-28T18:26:47.704Z,101378.97
2023-01-28T18:32:04.498Z,101382.09
2023-01-28T18:34:31.912Z,101383.50
2023-01-28T18:37:00.043Z,101383.78
2023-01-28T18:39:30.221Z,101390.50
2023-01-28T18:41:59.656Z,101396.59
2023-01-28T18:44:29.896Z,101405.75
2023-01-28T18:46:57.409Z,101404.81
2023-01-28T18:52:23.562Z,101397.28
2023-01-28T18:54:50.972Z,101398.44
2023-01-28T18:57:20.529Z,101402.31
2023-01-28T18:59:48.377Z,101394.84
2023-01-28T19:02:16.637Z,101391.75
2023-01-28T19:04:45.944Z,101404.53
2023-01-28T19:07:13.472Z,101405.22
2023-01-28T19:12:31.160Z,101407.84
2023-01-28T19:14:59.023Z,101410.84
2023-01-28T19:20:28.586Z,101415.81
2023-01-28T19:22:56.018Z,101415.94
2023-01-28T19:25:23.450Z,101421.41
2023-01-28T19:27:55.411Z,101413.84
2023-01-28T19:30:22.835Z,101411.75
2023-01-28T19:32:50.261Z,101422.75
2023-01-28T19:35:18.290Z,101419.22
2023-01-28T19:37:46.590Z,101411.47
2023-01-28T19:43:06.335Z,101416.06
2023-01-28T19:45:33.760Z,101408.91
2023-01-28T19:48:01.218Z,101411.16
2023-01-28T19:50:28.633Z,101404.75
2023-01-28T19:55:54.511Z,101403.13
2023-01-28T19:58:23.256Z,101397.00
2023-01-28T20:00:50.662Z,101388.09
2023-01-28T20:03:18.157Z,101387.78
2023-01-28T20:05:45.856Z,101381.84
2023-01-28T20:08:13.255Z,101388.47
2023-01-28T20:13:32.545Z,101389.09
2023-01-28T20:16:00.457Z,101385.00
2023-01-28T20:18:28.196Z,101383.56
2023-01-28T20:20:55.941Z,101380.69
2023-01-28T20:23:24.153Z,101379.63
2023-01-28T20:25:52.601Z,101371.75
2023-01-28T20:28:20.030Z,101372.81
2023-01-28T20:30:49.221Z,101369.88
2023-01-28T20:33:16.968Z,101379.03
2023-01-28T20:35:44.673Z,101369.88
2023-01-28T20:38:12.949Z,101379.19
2023-01-28T20:40:42.215Z,101376.69
2023-01-28T20:43:10.302Z,101372.22
2023-01-28T20:45:38.173Z,101370.38
2023-01-28T20:48:07.639Z,101358.16
2023-01-28T20:50:35.824Z,101357.09
2023-01-28T20:53:03.269Z,101349.59
2023-01-28T20:55:30.960Z,101359.06
2023-01-28T20:57:58.426Z,101357.94
2023-01-28T21:00:26.077Z,101355.94
2023-01-28T21:02:53.596Z,101352.34
2023-01-28T21:05:22.420Z,101362.41
2023-01-28T21:07:49.848Z,101366.88
2023-01-28T21:10:18.308Z,101370.66
2023-01-28T21:12:45.936Z,101358.34
2023-01-28T21:15:13.380Z,101356.09
2023-01-28T21:17:40.801Z,101354.88
2023-01-28T21:20:09.784Z,101361.91
2023-01-28T21:22:38.524Z,101372.94
2023-01-28T21:25:06.655Z,101363.41
2023-01-28T21:27:35.545Z,101365.56
2023-01-28T21:30:03.047Z,101357.94
2023-01-28T21:32:30.591Z,101361.84
2023-01-28T21:34:58.117Z,101375.16
2023-01-28T21:37:26.189Z,101365.69
2023-01-28T21:39:54.962Z,101368.00
2023-01-28T21:42:22.649Z,101378.59
2023-01-28T21:44:50.129Z,101361.53
2023-01-28T21:47:17.678Z,101364.91
2023-01-28T21:49:45.170Z,101365.47
2023-01-28T21:52:20.247Z,101326.47
2023-01-28T21:54:47.746Z,101372.88
2023-01-28T21:57:16.465Z,101362.28
2023-01-28T21:59:43.869Z,101359.78
2023-01-28T22:02:12.208Z,101370.50
2023-01-28T22:04:41.351Z,101367.47
2023-01-28T22:07:11.112Z,101362.88
2023-01-28T22:09:38.877Z,101351.84
2023-01-28T22:15:06.901Z,101355.09
2023-01-28T22:17:34.340Z,101343.47
2023-01-28T22:20:01.744Z,101343.44
2023-01-28T22:22:29.160Z,101353.84
2023-01-28T22:24:56.559Z,101351.56
2023-01-28T22:27:24.064Z,101350.44
2023-01-28T22:29:53.616Z,101335.94
2023-01-28T22:32:22.350Z,101342.47
2023-01-28T22:34:49.765Z,101343.25
2023-01-28T22:40:06.389Z,101338.81
2023-01-28T22:42:33.817Z,101329.25
2023-01-28T22:45:01.275Z,101330.38
2023-01-28T22:47:30.076Z,101327.22
2023-01-28T22:50:01.233Z,101330.13
2023-01-28T22:52:28.665Z,101326.66
2023-01-28T22:57:54.594Z,101326.78
2023-01-28T23:00:28.117Z,101320.09
2023-01-28T23:05:45.873Z,101328.84
2023-01-28T23:08:13.315Z,101314.09
2023-01-28T23:10:47.373Z,101319.75
2023-01-28T23:13:15.394Z,101331.03
2023-01-28T23:18:49.317Z,101324.00
2023-01-28T23:21:38.406Z,101329.47
2023-01-28T23:24:20.777Z,101326.00
2023-01-28T23:26:50.760Z,101330.91
2023-01-28T23:29:18.931Z,101328.03
2023-01-28T23:31:48.072Z,101327.47
2023-01-28T23:34:16.220Z,101326.09
2023-01-28T23:36:47.096Z,101325.03
2023-01-28T23:39:14.543Z,101325.28
2023-01-28T23:41:42.015Z,101322.50
2023-01-28T23:44:09.430Z,101325.34
2023-01-28T23:46:39.766Z,101314.28
2023-01-28T23:49:08.148Z,101319.19
2023-01-28T23:51:35.718Z,101324.13
2023-01-28T23:54:04.505Z,101329.56
2023-01-28T23:56:31.924Z,101329.13
2023-01-28T23:58:59.340Z,101325.66
